Time;durP1;ratioP1;P1;durP2;ratioP2;P2;SDS_P1;SDS_P2;PMS_P1;PMS_P2;Temp;Humidity;BMP_temperature;BMP_pressure;BME280_temperature;BME280_humidity;BME280_pressure;Samples;Min_cycle;Max_cycle;Signal;HPM_P1;HPM_P2
2021/10/30 00:00:51;;;;;;;;;;;1.90;99.90;;;;;;5087856;28;19988;-75
2021/10/30 00:03:17;;;;;;;;;;;1.80;99.90;;;;;;5091236;28;19908;-76
2021/10/30 00:05:44;;;;;;;;;;;1.90;99.90;;;;;;5090945;28;19959;-75
2021/10/30 00:08:10;;;;;;;;;;;1.90;99.90;;;;;;5090862;28;19955;-75
2021/10/30 00:10:35;;;;;;;;;;;2.00;99.90;;;;;;5090181;28;19919;-75
2021/10/30 00:13:01;;;;;;;;;;;2.00;99.90;;;;;;5090790;28;20608;-75
2021/10/30 00:15:27;;;;;;;;;;;2.10;99.90;;;;;;5090746;28;19962;-75
2021/10/30 00:17:52;;;;;;;;;;;2.10;99.90;;;;;;5090901;28;19908;-75
2021/10/30 00:20:18;;;;;;;;;;;1.90;99.90;;;;;;5090345;28;20344;-75
2021/10/30 00:22:43;;;;;;;;;;;1.80;99.90;;;;;;5091562;28;19915;-75
2021/10/30 00:25:09;;;;;;;;;;;2.00;99.90;;;;;;5094562;28;20283;-75
2021/10/30 00:27:34;;;;;;;;;;;2.20;99.90;;;;;;5089981;28;19916;-75
2021/10/30 00:30:00;;;;;;;;;;;2.10;99.90;;;;;;5087322;28;19991;-75
2021/10/30 00:32:25;;;;;;;;;;;2.00;99.90;;;;;;5094441;28;19912;-75
2021/10/30 00:34:51;;;;;;;;;;;1.90;99.90;;;;;;5094308;28;19912;-74
2021/10/30 00:37:16;;;;;;;;;;;1.80;99.90;;;;;;5094384;28;19914;-75
2021/10/30 00:39:42;;;;;;;;;;;1.70;99.90;;;;;;5094082;28;19962;-75
2021/10/30 00:42:07;;;;;;;;;;;1.70;99.90;;;;;;5094062;28;20316;-75
2021/10/30 00:44:33;;;;;;;;;;;1.80;99.90;;;;;;5094205;28;19991;-75
2021/10/30 00:46:58;;;;;;;;;;;1.90;99.90;;;;;;5094122;28;19912;-75
2021/10/30 00:49:25;;;;;;;;;;;1.80;99.90;;;;;;5093755;28;19908;-76
2021/10/30 00:51:52;;;;;;;;;;;1.60;99.90;;;;;;5093716;28;19909;-75
2021/10/30 00:54:17;;;;;;;;;;;1.60;99.90;;;;;;5093984;28;19956;-75
2021/10/30 00:56:43;;;;;;;;;;;1.40;99.90;;;;;;5088944;28;20378;-76
2021/10/30 00:59:12;;;;;;;;;;;1.50;99.90;;;;;;5086705;28;19909;-75
2021/10/30 01:01:38;;;;;;;;;;;1.60;99.90;;;;;;5093488;28;20286;-75
2021/10/30 01:04:04;;;;;;;;;;;1.70;99.90;;;;;;5075592;28;19908;-75
2021/10/30 01:06:30;;;;;;;;;;;1.90;99.90;;;;;;5093575;28;20365;-73
2021/10/30 01:08:56;;;;;;;;;;;1.90;99.90;;;;;;5093689;28;19914;-74
2021/10/30 01:11:21;;;;;;;;;;;1.70;99.90;;;;;;5092959;28;19916;-74
2021/10/30 01:13:48;;;;;;;;;;;1.80;99.90;;;;;;5093588;28;19912;-76
2021/10/30 01:16:13;;;;;;;;;;;1.70;99.90;;;;;;5093654;28;19961;-74
2021/10/30 01:18:39;;;;;;;;;;;1.50;99.90;;;;;;5093592;28;20294;-74
2021/10/30 01:21:05;;;;;;;;;;;1.40;99.90;;;;;;5093032;28;19908;-74
2021/10/30 01:23:30;;;;;;;;;;;1.30;99.90;;;;;;5093344;28;19919;-74
2021/10/30 01:26:00;;;;;;;;;;;1.30;99.90;;;;;;5093264;28;19908;-74
2021/10/30 01:28:26;;;;;;;;;;;1.30;99.90;;;;;;5082854;28;19911;-74
2021/10/30 01:30:52;;;;;;;;;;;1.50;99.90;;;;;;5071597;28;19916;-74
2021/10/30 01:33:18;;;;;;;;;;;1.50;99.90;;;;;;5093164;28;19908;-74
2021/10/30 01:35:43;;;;;;;;;;;1.30;99.90;;;;;;5092572;28;19908;-74
2021/10/30 01:38:09;;;;;;;;;;;1.20;99.90;;;;;;5093122;28;20459;-75
2021/10/30 01:40:39;;;;;;;;;;;1.10;99.90;;;;;;5092584;28;19912;-75
2021/10/30 01:43:05;;;;;;;;;;;1.20;99.90;;;;;;5093048;28;19993;-75
2021/10/30 01:45:31;;;;;;;;;;;1.30;99.90;;;;;;5093210;28;19916;-75
2021/10/30 01:47:57;;;;;;;;;;;1.30;99.90;;;;;;5092837;28;20154;-75
2021/10/30 01:50:23;;;;;;;;;;;1.40;99.90;;;;;;5092433;28;19940;-75
2021/10/30 01:52:49;;;;;;;;;;;1.40;99.90;;;;;;5092855;28;19991;-74
2021/10/30 01:55:15;;;;;;;;;;;1.70;99.90;;;;;;5092703;28;19973;-75
2021/10/30 01:57:41;;;;;;;;;;;1.70;99.90;;;;;;5070413;28;20590;-75
2021/10/30 02:00:07;;;;;;;;;;;1.60;99.90;;;;;;5086695;28;19908;-75
2021/10/30 02:02:33;;;;;;;;;;;1.40;99.90;;;;;;5092508;28;19931;-75
2021/10/30 02:04:58;;;;;;;;;;;1.50;99.90;;;;;;5092569;28;19908;-75
2021/10/30 02:07:24;;;;;;;;;;;1.40;99.90;;;;;;5074256;28;19912;-75
2021/10/30 02:09:49;;;;;;;;;;;1.50;99.90;;;;;;5091896;28;19973;-73
2021/10/30 02:12:16;;;;;;;;;;;1.60;99.90;;;;;;5074287;28;19908;-75
2021/10/30 02:14:41;;;;;;;;;;;1.50;99.90;;;;;;5092408;28;20414;-75
2021/10/30 02:17:07;;;;;;;;;;;1.30;99.90;;;;;;5074139;28;19993;-75
2021/10/30 02:19:32;;;;;;;;;;;1.20;99.90;;;;;;5085528;28;20283;-75
2021/10/30 02:21:58;;;;;;;;;;;1.30;99.90;;;;;;5092011;28;19908;-74
2021/10/30 02:24:23;;;;;;;;;;;1.20;99.90;;;;;;5092135;28;20007;-75
2021/10/30 02:26:49;;;;;;;;;;;1.00;99.90;;;;;;5091920;28;20028;-75
2021/10/30 02:29:15;;;;;;;;;;;1.00;99.90;;;;;;5088002;28;19908;-75
2021/10/30 02:31:40;;;;;;;;;;;1.00;99.90;;;;;;5091844;28;19912;-75
2021/10/30 02:34:06;;;;;;;;;;;1.10;99.90;;;;;;5073936;28;20362;-74
2021/10/30 02:36:31;;;;;;;;;;;1.10;99.90;;;;;;5091965;28;20006;-75
2021/10/30 02:38:57;;;;;;;;;;;1.10;99.90;;;;;;5091815;28;19908;-75
2021/10/30 02:41:22;;;;;;;;;;;1.00;99.90;;;;;;5091424;28;20286;-74
2021/10/30 02:43:48;;;;;;;;;;;1.20;99.90;;;;;;5091797;28;19909;-74
2021/10/30 02:46:13;;;;;;;;;;;1.30;99.90;;;;;;5091806;28;19997;-75
2021/10/30 02:48:39;;;;;;;;;;;1.20;99.90;;;;;;5091660;28;19912;-75
2021/10/30 02:51:04;;;;;;;;;;;1.20;99.90;;;;;;5091323;28;20362;-74
2021/10/30 02:53:30;;;;;;;;;;;1.00;99.90;;;;;;5091613;28;19931;-75
2021/10/30 02:55:55;;;;;;;;;;;0.90;99.90;;;;;;5073516;28;19937;-75
2021/10/30 02:58:21;;;;;;;;;;;0.90;99.90;;;;;;5087806;28;19923;-75
2021/10/30 03:00:46;;;;;;;;;;;0.90;99.90;;;;;;5068767;28;19915;-74
2021/10/30 03:03:12;;;;;;;;;;;0.90;99.90;;;;;;5073285;28;20350;-75
2021/10/30 03:05:37;;;;;;;;;;;1.00;99.90;;;;;;5091431;28;19915;-75
2021/10/30 03:08:03;;;;;;;;;;;1.00;99.90;;;;;;5091184;28;20266;-74
2021/10/30 03:10:29;;;;;;;;;;;1.00;99.90;;;;;;5090588;28;19916;-75
2021/10/30 03:12:54;;;;;;;;;;;1.20;99.90;;;;;;5091287;28;19908;-75
2021/10/30 03:15:20;;;;;;;;;;;1.00;99.90;;;;;;5091203;28;20286;-75
2021/10/30 03:17:46;;;;;;;;;;;0.80;99.90;;;;;;5091224;28;20002;-75
2021/10/30 03:20:12;;;;;;;;;;;0.70;99.90;;;;;;5090818;28;19912;-75
2021/10/30 03:22:38;;;;;;;;;;;0.70;99.90;;;;;;5091132;28;19908;-75
2021/10/30 03:25:04;;;;;;;;;;;0.70;99.90;;;;;;5091299;28;19908;-75
2021/10/30 03:27:30;;;;;;;;;;;0.80;99.90;;;;;;5086259;28;20302;-75
2021/10/30 03:29:55;;;;;;;;;;;0.90;99.90;;;;;;5090206;28;19953;-74
2021/10/30 03:32:21;;;;;;;;;;;1.00;99.90;;;;;;5091294;28;19912;-75
2021/10/30 03:34:46;;;;;;;;;;;0.80;99.90;;;;;;5073095;28;20431;-75
2021/10/30 03:37:12;;;;;;;;;;;0.70;99.90;;;;;;5090972;28;19959;-74
2021/10/30 03:39:37;;;;;;;;;;;0.60;99.90;;;;;;5072708;28;19908;-75
2021/10/30 03:42:04;;;;;;;;;;;0.60;99.90;;;;;;5091041;28;20007;-75
2021/10/30 03:44:29;;;;;;;;;;;0.60;99.90;;;;;;5091000;28;19913;-75
2021/10/30 03:46:55;;;;;;;;;;;0.60;99.90;;;;;;5090950;28;19921;-75
2021/10/30 03:49:21;;;;;;;;;;;0.50;99.90;;;;;;5090950;28;20406;-74
2021/10/30 03:51:46;;;;;;;;;;;0.50;99.90;;;;;;5090467;28;20428;-74
2021/10/30 03:54:11;;;;;;;;;;;0.40;99.90;;;;;;5091008;28;19931;-75
2021/10/30 03:56:37;;;;;;;;;;;0.40;99.90;;;;;;5089065;28;20410;-75
2021/10/30 03:59:03;;;;;;;;;;;0.40;99.90;;;;;;5086824;28;19908;-75
2021/10/30 04:01:29;;;;;;;;;;;0.40;99.90;;;;;;5076100;28;19947;-75
2021/10/30 04:03:54;;;;;;;;;;;0.40;99.90;;;;;;5094761;28;19912;-75
2021/10/30 04:06:20;;;;;;;;;;;0.30;99.90;;;;;;5094621;28;19908;-75
2021/10/30 04:08:45;;;;;;;;;;;0.20;99.90;;;;;;5094685;28;20051;-75
2021/10/30 04:11:11;;;;;;;;;;;0.10;99.90;;;;;;5094222;28;20457;-75
2021/10/30 04:13:36;;;;;;;;;;;0.20;99.90;;;;;;5094540;28;19912;-73
2021/10/30 04:16:02;;;;;;;;;;;0.10;99.90;;;;;;5094643;28;19915;-74
2021/10/30 04:18:27;;;;;;;;;;;0.20;99.90;;;;;;5094604;28;19908;-75
2021/10/30 04:20:53;;;;;;;;;;;0.40;99.90;;;;;;5093934;28;20002;-75
2021/10/30 04:23:18;;;;;;;;;;;0.40;99.90;;;;;;5078783;28;19908;-74
2021/10/30 04:25:44;;;;;;;;;;;0.40;99.90;;;;;;5094820;28;20359;-75
2021/10/30 04:28:10;;;;;;;;;;;0.40;99.90;;;;;;5084593;28;19913;-75
2021/10/30 04:30:36;;;;;;;;;;;0.50;99.90;;;;;;5088786;28;20282;-74
2021/10/30 04:33:02;;;;;;;;;;;0.30;99.90;;;;;;5076132;28;19916;-75
2021/10/30 04:35:27;;;;;;;;;;;0.30;99.90;;;;;;5075861;28;19908;-74
2021/10/30 04:37:53;;;;;;;;;;;0.20;99.90;;;;;;5094297;28;19908;-75
2021/10/30 04:40:18;;;;;;;;;;;0.10;99.90;;;;;;5093737;28;20415;-75
2021/10/30 04:42:44;;;;;;;;;;;-0.10;99.90;;;;;;5075865;28;19908;-75
2021/10/30 04:45:09;;;;;;;;;;;-0.10;99.90;;;;;;5094051;28;19915;-74
2021/10/30 04:47:35;;;;;;;;;;;-0.10;99.90;;;;;;5075626;28;20388;-75
2021/10/30 04:50:00;;;;;;;;;;;-0.10;99.90;;;;;;5093455;28;19931;-75
2021/10/30 04:52:27;;;;;;;;;;;-0.10;99.90;;;;;;5093957;28;19915;-75
2021/10/30 04:54:52;;;;;;;;;;;-0.20;99.90;;;;;;5093964;28;19962;-75
2021/10/30 04:57:18;;;;;;;;;;;-0.20;99.90;;;;;;5090518;28;19952;-75
2021/10/30 04:59:43;;;;;;;;;;;-0.30;99.90;;;;;;5073208;28;19908;-74
2021/10/30 05:02:09;;;;;;;;;;;-0.30;99.90;;;;;;5093822;28;20398;-75
2021/10/30 05:04:35;;;;;;;;;;;-0.30;99.90;;;;;;5093516;28;20314;-75
2021/10/30 05:07:00;;;;;;;;;;;-0.10;99.90;;;;;;5075298;28;19958;-75
2021/10/30 05:09:26;;;;;;;;;;;-0.10;99.90;;;;;;5092107;28;19908;-74
2021/10/30 05:11:51;;;;;;;;;;;-0.10;99.90;;;;;;5093325;28;19982;-75
2021/10/30 05:14:17;;;;;;;;;;;-0.10;99.90;;;;;;5093637;28;19978;-75
2021/10/30 05:16:42;;;;;;;;;;;-0.20;99.90;;;;;;5093485;28;20428;-75
2021/10/30 05:19:08;;;;;;;;;;;-0.10;99.90;;;;;;5093275;28;20015;-75
2021/10/30 05:21:33;;;;;;;;;;;-0.10;99.90;;;;;;5092895;28;19916;-75
2021/10/30 05:23:59;;;;;;;;;;;-0.10;99.90;;;;;;5093265;28;19915;-75
2021/10/30 05:26:24;;;;;;;;;;;-0.10;99.90;;;;;;5091072;28;19955;-74
2021/10/30 05:28:51;;;;;;;;;;;-0.10;99.90;;;;;;5067378;28;20371;-75
2021/10/30 05:31:16;;;;;;;;;;;0.10;99.90;;;;;;5074509;28;19941;-75
2021/10/30 05:33:42;;;;;;;;;;;0.10;99.90;;;;;;5093108;28;19908;-76
2021/10/30 05:36:10;;;;;;;;;;;0.00;99.90;;;;;;5093107;28;19920;-75
2021/10/30 05:38:38;;;;;;;;;;;0.00;99.90;;;;;;5093202;28;19969;-75
2021/10/30 05:41:03;;;;;;;;;;;0.20;99.90;;;;;;5074334;28;19987;-75
2021/10/30 05:43:29;;;;;;;;;;;0.30;99.90;;;;;;5074728;28;19943;-75
2021/10/30 05:45:55;;;;;;;;;;;0.20;99.90;;;;;;5074751;28;20583;-76
2021/10/30 05:48:20;;;;;;;;;;;0.10;99.90;;;;;;5074513;28;20324;-75
2021/10/30 05:50:46;;;;;;;;;;;0.00;99.90;;;;;;5074299;28;20286;-76
2021/10/30 05:53:11;;;;;;;;;;;0.00;99.90;;;;;;5092799;28;19965;-75
2021/10/30 05:55:37;;;;;;;;;;;0.00;99.90;;;;;;5067843;28;20372;-75
2021/10/30 05:58:02;;;;;;;;;;;-0.10;99.90;;;;;;5090942;28;20190;-75
2021/10/30 06:00:28;;;;;;;;;;;-0.10;99.90;;;;;;5091952;28;19954;-75
2021/10/30 06:02:56;;;;;;;;;;;0.00;99.90;;;;;;5092323;28;19923;-75
2021/10/30 06:05:22;;;;;;;;;;;-0.10;99.90;;;;;;5092339;28;19916;-76
2021/10/30 06:07:47;;;;;;;;;;;-0.10;99.90;;;;;;5092297;28;20278;-75
2021/10/30 06:10:13;;;;;;;;;;;0.00;99.90;;;;;;5091970;28;19995;-76
2021/10/30 06:12:40;;;;;;;;;;;-0.30;99.90;;;;;;5092290;28;19915;-75
2021/10/30 06:15:06;;;;;;;;;;;-0.30;99.90;;;;;;5074205;28;19908;-76
2021/10/30 06:17:32;;;;;;;;;;;-0.30;99.90;;;;;;5091978;28;19999;-75
2021/10/30 06:19:57;;;;;;;;;;;-0.20;99.90;;;;;;5091772;28;19983;-75
2021/10/30 06:22:23;;;;;;;;;;;-0.30;99.90;;;;;;5074164;28;20575;-75
2021/10/30 06:24:48;;;;;;;;;;;-0.30;99.90;;;;;;5092734;28;20493;-74
2021/10/30 06:27:14;;;;;;;;;;;0.10;99.90;;;;;;5089330;28;20393;-75
2021/10/30 06:29:39;;;;;;;;;;;0.20;99.90;;;;;;5088067;28;19908;-75
2021/10/30 06:32:05;;;;;;;;;;;0.00;99.90;;;;;;5092524;28;19999;-75
2021/10/30 06:34:31;;;;;;;;;;;0.10;99.90;;;;;;5092432;28;20370;-76
2021/10/30 06:36:56;;;;;;;;;;;0.00;99.90;;;;;;5092359;28;20336;-75
2021/10/30 06:39:22;;;;;;;;;;;0.10;99.90;;;;;;5092124;28;20370;-76
2021/10/30 06:41:47;;;;;;;;;;;0.10;99.90;;;;;;5091831;28;20459;-75
2021/10/30 06:44:13;;;;;;;;;;;0.10;99.90;;;;;;5091522;28;19915;-76
2021/10/30 06:46:38;;;;;;;;;;;0.10;99.90;;;;;;5072817;28;19915;-75
2021/10/30 06:49:08;;;;;;;;;;;0.20;99.90;;;;;;5091299;28;20353;-75
2021/10/30 06:51:34;;;;;;;;;;;0.30;99.90;;;;;;5091162;28;19908;-75
2021/10/30 06:54:00;;;;;;;;;;;0.50;99.90;;;;;;5091581;28;19915;-75
2021/10/30 06:56:26;;;;;;;;;;;0.50;99.90;;;;;;5089336;28;19909;-76
2021/10/30 06:58:51;;;;;;;;;;;0.60;99.90;;;;;;5065239;28;20401;-75
2021/10/30 07:01:17;;;;;;;;;;;0.70;99.90;;;;;;5072873;28;19908;-75
2021/10/30 07:03:43;;;;;;;;;;;0.90;99.90;;;;;;5091532;28;19916;-74
2021/10/30 07:06:11;;;;;;;;;;;1.10;99.90;;;;;;5091672;28;19914;-75
2021/10/30 07:08:37;;;;;;;;;;;1.20;99.90;;;;;;5072908;28;19916;-74
2021/10/30 07:11:03;;;;;;;;;;;1.50;99.90;;;;;;5072604;28;19920;-75
2021/10/30 07:13:28;;;;;;;;;;;1.60;99.90;;;;;;5091881;28;19908;-75
2021/10/30 07:15:54;;;;;;;;;;;1.80;99.90;;;;;;5091729;28;20332;-75
2021/10/30 07:18:19;;;;;;;;;;;1.90;99.90;;;;;;5091366;28;20359;-75
2021/10/30 07:20:45;;;;;;;;;;;2.10;99.90;;;;;;5090917;28;19908;-75
2021/10/30 07:23:11;;;;;;;;;;;2.30;99.90;;;;;;5091792;28;19908;-75
2021/10/30 07:25:36;;;;;;;;;;;2.40;99.90;;;;;;5091623;28;20314;-75
2021/10/30 07:28:02;;;;;;;;;;;2.60;99.90;;;;;;5088227;28;19915;-75
2021/10/30 07:30:27;;;;;;;;;;;2.90;99.90;;;;;;5085571;28;19908;-74
2021/10/30 07:32:54;;;;;;;;;;;2.90;99.90;;;;;;5091126;28;19912;-75
2021/10/30 07:35:22;;;;;;;;;;;2.90;99.90;;;;;;5091697;28;20328;-75
2021/10/30 07:37:48;;;;;;;;;;;3.00;99.90;;;;;;5091447;28;19985;-75
2021/10/30 07:40:14;;;;;;;;;;;3.30;99.90;;;;;;5090991;28;20418;-74
2021/10/30 07:42:40;;;;;;;;;;;3.40;99.90;;;;;;5091570;28;19908;-74
2021/10/30 07:45:06;;;;;;;;;;;3.60;99.90;;;;;;5091291;28;19908;-74
2021/10/30 07:47:31;;;;;;;;;;;3.70;99.90;;;;;;5091465;28;20544;-75
2021/10/30 07:49:58;;;;;;;;;;;3.70;99.90;;;;;;5091013;28;19915;-75
2021/10/30 07:52:24;;;;;;;;;;;3.80;99.90;;;;;;5091619;28;19908;-75
2021/10/30 07:54:50;;;;;;;;;;;3.90;99.90;;;;;;5091458;28;19954;-75
2021/10/30 07:57:15;;;;;;;;;;;4.10;99.90;;;;;;5091307;28;19912;-75
2021/10/30 07:59:41;;;;;;;;;;;4.30;99.90;;;;;;5090282;28;19963;-75
2021/10/30 08:02:07;;;;;;;;;;;4.60;99.90;;;;;;5091244;28;19939;-74
2021/10/30 08:04:33;;;;;;;;;;;4.90;99.90;;;;;;5091126;28;19908;-75
2021/10/30 08:06:58;;;;;;;;;;;5.40;99.90;;;;;;5091039;28;19912;-74
2021/10/30 08:09:24;;;;;;;;;;;5.70;99.90;;;;;;5090919;28;19965;-75
2021/10/30 08:11:49;;;;;;;;;;;5.90;99.90;;;;;;5090791;28;19955;-75
2021/10/30 08:14:15;;;;;;;;;;;6.10;99.90;;;;;;5072772;28;20263;-75
2021/10/30 08:16:41;;;;;;;;;;;6.30;99.90;;;;;;5091473;28;19977;-75
2021/10/30 08:19:06;;;;;;;;;;;6.70;99.90;;;;;;5091255;28;19908;-74
2021/10/30 08:21:32;;;;;;;;;;;6.80;99.90;;;;;;5090481;28;19908;-75
2021/10/30 08:23:57;;;;;;;;;;;6.80;99.90;;;;;;5090911;28;19908;-74
2021/10/30 08:26:23;;;;;;;;;;;6.70;99.90;;;;;;5088267;28;19908;-73
2021/10/30 08:28:49;;;;;;;;;;;6.70;99.90;;;;;;5085568;28;19973;-74
2021/10/30 08:31:15;;;;;;;;;;;6.80;99.90;;;;;;5090734;28;19908;-74
2021/10/30 08:33:40;;;;;;;;;;;6.80;99.90;;;;;;5090712;28;19995;-75
2021/10/30 08:36:06;;;;;;;;;;;6.80;99.90;;;;;;5090722;28;20366;-74
2021/10/30 08:38:32;;;;;;;;;;;7.00;99.90;;;;;;5090622;28;19912;-73
2021/10/30 08:40:58;;;;;;;;;;;7.10;99.90;;;;;;5083624;28;20331;-74
2021/10/30 08:43:25;;;;;;;;;;;7.10;99.90;;;;;;5091076;28;19962;-74
2021/10/30 08:45:51;;;;;;;;;;;7.00;99.90;;;;;;5094382;28;19934;-74
2021/10/30 08:48:23;;;;;;;;;;;6.90;99.90;;;;;;5093981;28;19916;-74
2021/10/30 08:50:49;;;;;;;;;;;7.10;99.90;;;;;;5075569;28;19915;-74
2021/10/30 08:53:15;;;;;;;;;;;7.40;99.90;;;;;;5076099;28;19908;-75
2021/10/30 08:55:40;;;;;;;;;;;7.50;99.90;;;;;;5094410;28;19908;-74
2021/10/30 08:58:07;;;;;;;;;;;7.50;99.90;;;;;;5073844;28;19968;-74
2021/10/30 09:00:36;;;;;;;;;;;7.40;99.90;;;;;;5093313;28;19908;-75
2021/10/30 09:03:03;;;;;;;;;;;7.30;99.90;;;;;;5094099;28;19912;-74
2021/10/30 09:05:30;;;;;;;;;;;7.20;99.90;;;;;;5094092;28;20285;-75
2021/10/30 09:07:56;;;;;;;;;;;7.00;99.90;;;;;;5093943;28;20289;-74
2021/10/30 09:10:35;;;;;;;;;;;6.90;99.90;;;;;;5093431;28;20065;-74
2021/10/30 09:13:01;;;;;;;;;;;6.70;99.90;;;;;;5076002;28;19908;-73
2021/10/30 09:15:30;;;;;;;;;;;6.90;99.90;;;;;;5094142;28;19915;-74
2021/10/30 09:17:55;;;;;;;;;;;7.00;99.90;;;;;;5093966;28;19998;-75
2021/10/30 09:20:28;;;;;;;;;;;7.10;99.90;;;;;;5093283;28;20043;-74
2021/10/30 09:22:54;;;;;;;;;;;7.20;99.90;;;;;;5093313;28;19998;-73
2021/10/30 09:25:20;;;;;;;;;;;7.20;99.90;;;;;;5075289;28;20348;-74
2021/10/30 09:27:50;;;;;;;;;;;7.30;99.90;;;;;;5088211;28;20409;-74
2021/10/30 09:30:17;;;;;;;;;;;7.20;99.90;;;;;;5092342;28;19908;-75
2021/10/30 09:32:56;;;;;;;;;;;7.30;99.90;;;;;;5075165;28;20381;-74
2021/10/30 09:35:26;;;;;;;;;;;7.40;99.90;;;;;;5093053;28;19912;-74
2021/10/30 09:37:52;;;;;;;;;;;7.40;99.90;;;;;;5074825;28;19908;-74
2021/10/30 09:40:25;;;;;;;;;;;7.40;99.90;;;;;;5092548;28;19908;-74
2021/10/30 09:43:11;;;;;;;;;;;7.40;99.90;;;;;;5092984;28;19908;-74
2021/10/30 09:45:50;;;;;;;;;;;7.50;99.90;;;;;;5075190;28;19930;-74
2021/10/30 09:48:21;;;;;;;;;;;7.50;99.90;;;;;;5092813;28;20259;-73
2021/10/30 09:50:47;;;;;;;;;;;7.50;99.90;;;;;;5092347;28;19915;-74
2021/10/30 09:53:24;;;;;;;;;;;7.50;99.90;;;;;;5092772;28;19908;-74
2021/10/30 09:55:50;;;;;;;;;;;7.50;99.90;;;;;;5092173;28;19908;-73
2021/10/30 09:58:25;;;;;;;;;;;7.50;99.90;;;;;;5082969;28;19997;-75
2021/10/30 10:00:51;;;;;;;;;;;7.30;99.90;;;;;;5089751;28;19908;-74
2021/10/30 10:03:17;;;;;;;;;;;7.30;99.90;;;;;;5092998;28;19908;-74
2021/10/30 10:05:43;;;;;;;;;;;7.30;99.90;;;;;;5092806;28;19977;-74
2021/10/30 10:08:09;;;;;;;;;;;7.50;99.90;;;;;;5092777;28;20363;-74
2021/10/30 10:10:35;;;;;;;;;;;7.60;99.90;;;;;;5092191;28;20430;-74
2021/10/30 10:13:01;;;;;;;;;;;7.70;99.90;;;;;;5092515;28;19912;-75
2021/10/30 10:15:26;;;;;;;;;;;7.80;99.90;;;;;;5092400;28;20049;-74
2021/10/30 10:17:53;;;;;;;;;;;7.80;99.90;;;;;;5092669;28;19969;-74
2021/10/30 10:20:19;;;;;;;;;;;7.80;99.90;;;;;;5091851;28;19908;-75
2021/10/30 10:22:47;;;;;;;;;;;7.90;99.90;;;;;;5091977;28;20416;-75
2021/10/30 10:25:42;;;;;;;;;;;8.00;99.90;;;;;;5092516;28;20293;-74
2021/10/30 10:28:21;;;;;;;;;;;8.10;99.90;;;;;;5049427;28;19912;-75
2021/10/30 10:30:57;;;;;;;;;;;8.30;99.90;;;;;;5073649;28;20266;-74
2021/10/30 10:33:23;;;;;;;;;;;8.30;99.90;;;;;;5091819;28;19915;-74
2021/10/30 10:36:07;;;;;;;;;;;8.30;99.90;;;;;;5073617;28;19937;-74
2021/10/30 10:38:51;;;;;;;;;;;8.40;99.90;;;;;;5091931;28;19908;-74
2021/10/30 10:41:55;;;;;;;;;;;8.40;99.90;;;;;;5091216;28;19915;-74
2021/10/30 10:44:27;;;;;;;;;;;8.40;99.90;;;;;;5011105;28;19910;-74
2021/10/30 10:46:59;;;;;;;;;;;8.40;99.90;;;;;;5029037;28;20581;-75
2021/10/30 10:52:06;;;;;;;;;;;8.20;99.90;;;;;;5091362;28;19908;-74
2021/10/30 10:54:50;;;;;;;;;;;8.10;99.90;;;;;;5088868;28;20430;-74
2021/10/30 10:57:19;;;;;;;;;;;8.00;99.90;;;;;;5085299;28;19919;-75
2021/10/30 10:59:45;;;;;;;;;;;8.10;99.90;;;;;;5090074;28;19909;-74
2021/10/30 11:02:20;;;;;;;;;;;8.30;99.90;;;;;;5092056;28;19908;-74
2021/10/30 11:05:04;;;;;;;;;;;8.40;99.90;;;;;;5074314;28;20353;-74
2021/10/30 11:07:30;;;;;;;;;;;8.60;99.90;;;;;;5072090;28;19916;-75
2021/10/30 11:09:59;;;;;;;;;;;8.70;99.90;;;;;;5090024;28;20448;-74
2021/10/30 11:12:26;;;;;;;;;;;8.80;99.90;;;;;;5067613;28;20022;-75
2021/10/30 11:14:56;;;;;;;;;;;8.80;99.90;;;;;;5091175;28;19908;-74
2021/10/30 11:17:24;;;;;;;;;;;8.90;99.90;;;;;;5091382;28;20548;-74
2021/10/30 11:19:51;;;;;;;;;;;9.00;99.90;;;;;;5090563;28;19934;-74
2021/10/30 11:22:20;;;;;;;;;;;9.00;99.90;;;;;;5091333;28;19995;-74
2021/10/30 11:24:50;;;;;;;;;;;9.10;99.90;;;;;;5085554;28;19947;-74
2021/10/30 11:27:15;;;;;;;;;;;9.00;99.90;;;;;;5085581;28;20422;-73
2021/10/30 11:29:46;;;;;;;;;;;9.00;99.90;;;;;;5082748;28;19920;-74
2021/10/30 11:32:12;;;;;;;;;;;8.90;99.90;;;;;;5089822;28;19964;-75
2021/10/30 11:34:37;;;;;;;;;;;8.90;99.90;;;;;;5088401;28;19916;-75
2021/10/30 11:37:03;;;;;;;;;;;8.90;99.90;;;;;;5090094;28;19912;-75
2021/10/30 11:39:30;;;;;;;;;;;8.80;99.90;;;;;;5086410;28;20268;-74
2021/10/30 11:41:56;;;;;;;;;;;8.70;99.90;;;;;;5091080;28;19908;-74
2021/10/30 11:44:22;;;;;;;;;;;8.60;99.90;;;;;;5091314;28;19923;-74
2021/10/30 11:46:55;;;;;;;;;;;8.70;99.90;;;;;;5086233;28;19916;-75
2021/10/30 11:49:28;;;;;;;;;;;8.70;99.90;;;;;;5090556;28;19908;-74
2021/10/30 11:52:03;;;;;;;;;;;8.70;99.90;;;;;;5087354;28;19909;-74
2021/10/30 11:54:29;;;;;;;;;;;8.70;99.90;;;;;;5090788;28;20290;-75
2021/10/30 11:56:55;;;;;;;;;;;8.60;99.90;;;;;;5088280;28;19908;-75
2021/10/30 11:59:20;;;;;;;;;;;8.60;99.90;;;;;;5083904;28;19908;-75
2021/10/30 12:01:47;;;;;;;;;;;8.60;99.90;;;;;;5071580;28;19920;-75
2021/10/30 12:04:24;;;;;;;;;;;8.70;99.90;;;;;;5090395;28;19908;-75
2021/10/30 12:06:54;;;;;;;;;;;8.70;99.90;;;;;;5072051;28;20362;-75
2021/10/30 12:09:23;;;;;;;;;;;8.70;99.90;;;;;;5090056;28;19908;-75
2021/10/30 12:11:49;;;;;;;;;;;8.70;99.90;;;;;;5071932;28;19961;-76
2021/10/30 12:14:21;;;;;;;;;;;8.80;99.90;;;;;;5087930;28;19908;-75
2021/10/30 12:16:47;;;;;;;;;;;8.80;99.90;;;;;;5086485;28;19916;-75
2021/10/30 12:19:13;;;;;;;;;;;8.80;99.90;;;;;;5092050;28;19938;-75
2021/10/30 12:21:38;;;;;;;;;;;8.80;99.90;;;;;;5094261;28;19915;-76
2021/10/30 12:24:05;;;;;;;;;;;8.80;99.90;;;;;;5094130;28;19919;-75
2021/10/30 12:26:33;;;;;;;;;;;8.80;99.90;;;;;;5094392;28;19916;-76
2021/10/30 12:29:14;;;;;;;;;;;9.10;99.90;;;;;;5092721;28;19923;-76
2021/10/30 12:31:41;;;;;;;;;;;9.30;99.90;;;;;;5094659;28;19908;-76
2021/10/30 12:34:13;;;;;;;;;;;9.30;99.90;;;;;;5076620;28;20366;-76
2021/10/30 12:36:39;;;;;;;;;;;9.40;99.90;;;;;;5094777;28;19908;-76
2021/10/30 12:39:05;;;;;;;;;;;9.50;99.90;;;;;;5094786;28;19915;-76
2021/10/30 12:41:31;;;;;;;;;;;9.40;99.90;;;;;;5076366;28;19908;-76
2021/10/30 12:43:58;;;;;;;;;;;9.30;99.90;;;;;;5076652;28;19939;-76
2021/10/30 12:46:23;;;;;;;;;;;9.30;99.90;;;;;;5094819;28;19908;-76
2021/10/30 12:48:49;;;;;;;;;;;9.30;99.90;;;;;;5076479;28;20317;-76
2021/10/30 12:51:19;;;;;;;;;;;9.20;99.90;;;;;;5094245;28;19912;-76
2021/10/30 12:53:51;;;;;;;;;;;9.10;99.90;;;;;;5076909;28;20282;-76
2021/10/30 12:56:17;;;;;;;;;;;9.10;99.90;;;;;;5091957;28;20002;-76
2021/10/30 12:58:43;;;;;;;;;;;9.00;99.90;;;;;;5090261;28;20003;-76
2021/10/30 13:01:27;;;;;;;;;;;9.00;99.90;;;;;;5075231;28;19951;-76
2021/10/30 13:04:04;;;;;;;;;;;9.00;99.90;;;;;;5094264;28;19908;-76
2021/10/30 13:06:30;;;;;;;;;;;8.90;99.90;;;;;;5094358;28;19912;-76
2021/10/30 13:08:59;;;;;;;;;;;8.90;99.90;;;;;;5094068;28;19974;-76
2021/10/30 13:11:25;;;;;;;;;;;8.90;99.90;;;;;;5093754;28;19919;-75
2021/10/30 13:13:51;;;;;;;;;;;8.90;99.90;;;;;;5094105;28;19908;-76
2021/10/30 13:16:16;;;;;;;;;;;8.80;99.90;;;;;;5094914;28;19909;-75
2021/10/30 13:18:43;;;;;;;;;;;8.80;99.90;;;;;;5094290;28;19914;-76
2021/10/30 13:21:16;;;;;;;;;;;8.80;99.90;;;;;;5077100;28;19912;-76
2021/10/30 13:23:44;;;;;;;;;;;8.80;99.90;;;;;;5099122;28;20053;-76
2021/10/30 13:26:10;;;;;;;;;;;8.80;99.90;;;;;;5075769;28;19916;-76
2021/10/30 13:28:36;;;;;;;;;;;8.90;99.90;;;;;;5090990;28;20317;-76
2021/10/30 13:31:02;;;;;;;;;;;8.90;99.90;;;;;;5091886;28;19928;-76
2021/10/30 13:33:28;;;;;;;;;;;8.90;99.90;;;;;;5093577;28;19908;-76
2021/10/30 13:35:53;;;;;;;;;;;8.90;99.90;;;;;;5094011;28;19908;-76
2021/10/30 13:38:19;;;;;;;;;;;8.90;99.90;;;;;;5096653;28;19908;-76
2021/10/30 13:40:44;;;;;;;;;;;8.90;99.90;;;;;;5093545;28;19973;-76
2021/10/30 13:43:10;;;;;;;;;;;8.80;99.90;;;;;;5093735;28;19951;-76
2021/10/30 13:45:35;;;;;;;;;;;8.80;99.90;;;;;;5093394;28;20331;-76
2021/10/30 13:48:01;;;;;;;;;;;8.70;99.90;;;;;;5093833;28;19931;-76
2021/10/30 13:50:27;;;;;;;;;;;8.70;99.90;;;;;;5092920;28;19951;-76
2021/10/30 13:52:52;;;;;;;;;;;8.90;99.90;;;;;;5093536;28;20293;-76
2021/10/30 13:55:20;;;;;;;;;;;9.10;99.90;;;;;;5075455;28;19915;-76
2021/10/30 13:57:46;;;;;;;;;;;9.20;99.90;;;;;;5088168;28;20370;-76
2021/10/30 14:00:11;;;;;;;;;;;9.30;99.90;;;;;;5074724;28;19908;-76
2021/10/30 14:02:37;;;;;;;;;;;9.40;99.90;;;;;;5086771;28;19908;-77
2021/10/30 14:05:03;;;;;;;;;;;9.40;99.90;;;;;;5093040;28;19909;-76
2021/10/30 14:07:28;;;;;;;;;;;9.50;99.90;;;;;;5093453;28;20003;-76
2021/10/30 14:09:54;;;;;;;;;;;9.80;99.90;;;;;;5092460;28;20015;-76
2021/10/30 14:12:19;;;;;;;;;;;9.80;99.90;;;;;;5074995;28;19915;-76
2021/10/30 14:14:45;;;;;;;;;;;9.80;99.90;;;;;;5093171;28;19915;-77
2021/10/30 14:17:10;;;;;;;;;;;9.80;99.90;;;;;;5092906;28;19908;-76
2021/10/30 14:19:37;;;;;;;;;;;9.90;99.90;;;;;;5092235;28;19908;-75
2021/10/30 14:22:03;;;;;;;;;;;9.70;99.90;;;;;;5092609;28;20041;-76
2021/10/30 14:24:29;;;;;;;;;;;9.60;99.90;;;;;;5093048;28;19966;-76
2021/10/30 14:26:57;;;;;;;;;;;9.70;99.90;;;;;;5089923;28;19991;-76
2021/10/30 14:29:23;;;;;;;;;;;9.60;99.90;;;;;;5081304;28;19912;-76